sensor_id;sensor_type;location;lat;lon;timestamp;temperature;humidity
30328;DHT22;17133;52.418;13.398;2023-09-30T00:00:17;17.60;99.90
30328;DHT22;17133;52.418;13.398;2023-09-30T00:02:42;17.60;99.90
30328;DHT22;17133;52.418;13.398;2023-09-30T00:05:09;17.50;99.90
30328;DHT22;17133;52.418;13.398;2023-09-30T00:07:35;17.50;99.90
30328;DHT22;17133;52.418;13.398;2023-09-30T00:10:01;17.50;99.90
30328;DHT22;17133;52.418;13.398;2023-09-30T00:12:28;17.40;99.90
30328;DHT22;17133;52.418;13.398;2023-09-30T00:14:54;17.40;99.90
30328;DHT22;17133;52.418;13.398;2023-09-30T00:17:20;17.40;99.90
30328;DHT22;17133;52.418;13.398;2023-09-30T00:19:45;17.40;99.90
30328;DHT22;17133;52.418;13.398;2023-09-30T00:22:11;17.40;99.90
30328;DHT22;17133;52.418;13.398;2023-09-30T00:24:36;17.30;99.90
30328;DHT22;17133;52.418;13.398;2023-09-30T00:27:02;17.80;99.90
30328;DHT22;17133;52.418;13.398;2023-09-30T00:29:28;17.20;99.90
30328;DHT22;17133;52.418;13.398;2023-09-30T00:31:53;17.20;99.90
30328;DHT22;17133;52.418;13.398;2023-09-30T00:34:19;17.10;99.90
30328;DHT22;17133;52.418;13.398;2023-09-30T00:36:45;17.00;99.90
30328;DHT22;17133;52.418;13.398;2023-09-30T00:39:10;17.00;99.90
30328;DHT22;17133;52.418;13.398;2023-09-30T00:41:38;17.00;99.90
30328;DHT22;17133;52.418;13.398;2023-09-30T00:44:05;16.90;99.90
30328;DHT22;17133;52.418;13.398;2023-09-30T00:46:32;16.80;99.90
30328;DHT22;17133;52.418;13.398;2023-09-30T00:56:19;16.60;99.90
30328;DHT22;17133;52.418;13.398;2023-09-30T00:58:47;16.60;99.90
30328;DHT22;17133;52.418;13.398;2023-09-30T01:01:15;16.50;99.90
30328;DHT22;17133;52.418;13.398;2023-09-30T01:03:41;16.40;99.90
30328;DHT22;17133;52.418;13.398;2023-09-30T01:06:06;16.30;99.90
30328;DHT22;17133;52.418;13.398;2023-09-30T01:08:34;16.30;99.90
30328;DHT22;17133;52.418;13.398;2023-09-30T01:11:00;16.20;99.90
30328;DHT22;17133;52.418;13.398;2023-09-30T01:13:33;16.10;99.90
30328;DHT22;17133;52.418;13.398;2023-09-30T01:16:06;16.10;99.90
30328;DHT22;17133;52.418;13.398;2023-09-30T01:18:32;16.00;99.90
30328;DHT22;17133;52.418;13.398;2023-09-30T01:21:02;16.00;99.90
30328;DHT22;17133;52.418;13.398;2023-09-30T01:23:32;16.00;99.90
30328;DHT22;17133;52.418;13.398;2023-09-30T01:26:02;15.90;99.90
30328;DHT22;17133;52.418;13.398;2023-09-30T01:28:29;15.80;99.90
30328;DHT22;17133;52.418;13.398;2023-09-30T01:30:54;15.80;99.90
30328;DHT22;17133;52.418;13.398;2023-09-30T01:33:20;15.70;99.90
30328;DHT22;17133;52.418;13.398;2023-09-30T01:35:46;15.70;99.90
30328;DHT22;17133;52.418;13.398;2023-09-30T01:38:11;15.70;99.90
30328;DHT22;17133;52.418;13.398;2023-09-30T01:40:37;15.70;99.90
30328;DHT22;17133;52.418;13.398;2023-09-30T01:43:03;15.60;99.90
30328;DHT22;17133;52.418;13.398;2023-09-30T01:45:29;15.60;99.90
30328;DHT22;17133;52.418;13.398;2023-09-30T01:47:55;15.50;99.90
30328;DHT22;17133;52.418;13.398;2023-09-30T01:50:20;15.50;99.90
30328;DHT22;17133;52.418;13.398;2023-09-30T01:52:46;15.50;99.90
30328;DHT22;17133;52.418;13.398;2023-09-30T01:55:12;15.40;99.90
30328;DHT22;17133;52.418;13.398;2023-09-30T01:57:37;15.40;99.90
30328;DHT22;17133;52.418;13.398;2023-09-30T02:00:03;15.40;99.90
30328;DHT22;17133;52.418;13.398;2023-09-30T02:02:30;15.30;99.90
30328;DHT22;17133;52.418;13.398;2023-09-30T02:04:56;15.20;99.90
30328;DHT22;17133;52.418;13.398;2023-09-30T02:07:22;15.20;99.90
30328;DHT22;17133;52.418;13.398;2023-09-30T02:09:48;15.20;99.90
30328;DHT22;17133;52.418;13.398;2023-09-30T02:12:14;15.10;99.90
30328;DHT22;17133;52.418;13.398;2023-09-30T02:14:40;15.10;99.90
30328;DHT22;17133;52.418;13.398;2023-09-30T02:17:05;15.10;99.90
30328;DHT22;17133;52.418;13.398;2023-09-30T02:19:31;15.10;99.90
30328;DHT22;17133;52.418;13.398;2023-09-30T02:21:59;15.10;99.90
30328;DHT22;17133;52.418;13.398;2023-09-30T02:24:25;15.00;99.90
30328;DHT22;17133;52.418;13.398;2023-09-30T02:26:51;15.00;99.90
30328;DHT22;17133;52.418;13.398;2023-09-30T02:29:16;15.00;99.90
30328;DHT22;17133;52.418;13.398;2023-09-30T02:31:42;14.90;99.90
30328;DHT22;17133;52.418;13.398;2023-09-30T02:34:08;14.90;99.90
30328;DHT22;17133;52.418;13.398;2023-09-30T02:36:34;14.90;99.90
30328;DHT22;17133;52.418;13.398;2023-09-30T02:39:04;14.90;99.90
30328;DHT22;17133;52.418;13.398;2023-09-30T02:41:30;14.90;99.90
30328;DHT22;17133;52.418;13.398;2023-09-30T02:43:56;14.90;99.90
30328;DHT22;17133;52.418;13.398;2023-09-30T02:46:22;14.80;99.90
30328;DHT22;17133;52.418;13.398;2023-09-30T02:48:48;14.80;99.90
30328;DHT22;17133;52.418;13.398;2023-09-30T02:51:13;14.80;99.90
30328;DHT22;17133;52.418;13.398;2023-09-30T02:53:40;14.70;99.90
30328;DHT22;17133;52.418;13.398;2023-09-30T02:56:05;14.70;99.90
30328;DHT22;17133;52.418;13.398;2023-09-30T02:58:31;14.70;99.90
30328;DHT22;17133;52.418;13.398;2023-09-30T03:00:56;14.70;99.90
30328;DHT22;17133;52.418;13.398;2023-09-30T03:03:22;14.70;99.90
30328;DHT22;17133;52.418;13.398;2023-09-30T03:05:51;14.60;99.90
30328;DHT22;17133;52.418;13.398;2023-09-30T03:13:09;14.80;99.90
30328;DHT22;17133;52.418;13.398;2023-09-30T03:15:35;14.70;99.90
30328;DHT22;17133;52.418;13.398;2023-09-30T03:18:01;14.60;99.90
30328;DHT22;17133;52.418;13.398;2023-09-30T03:20:27;14.50;99.90
30328;DHT22;17133;52.418;13.398;2023-09-30T03:22:53;14.50;99.90
30328;DHT22;17133;52.418;13.398;2023-09-30T03:25:19;14.50;99.90
30328;DHT22;17133;52.418;13.398;2023-09-30T03:27:46;14.50;99.90
30328;DHT22;17133;52.418;13.398;2023-09-30T03:30:13;14.40;99.90
30328;DHT22;17133;52.418;13.398;2023-09-30T03:32:39;14.40;99.90
30328;DHT22;17133;52.418;13.398;2023-09-30T03:35:06;14.40;99.90
30328;DHT22;17133;52.418;13.398;2023-09-30T03:37:33;14.40;99.90
30328;DHT22;17133;52.418;13.398;2023-09-30T03:40:00;14.30;99.90
30328;DHT22;17133;52.418;13.398;2023-09-30T03:42:38;14.30;99.90
30328;DHT22;17133;52.418;13.398;2023-09-30T03:45:05;14.30;99.90
30328;DHT22;17133;52.418;13.398;2023-09-30T03:47:34;14.80;99.90
30328;DHT22;17133;52.418;13.398;2023-09-30T03:50:00;15.40;99.90
30328;DHT22;17133;52.418;13.398;2023-09-30T03:52:25;14.30;99.90
30328;DHT22;17133;52.418;13.398;2023-09-30T03:54:52;14.20;99.90
30328;DHT22;17133;52.418;13.398;2023-09-30T03:57:19;14.10;99.90
30328;DHT22;17133;52.418;13.398;2023-09-30T03:59:44;14.20;99.90
30328;DHT22;17133;52.418;13.398;2023-09-30T04:02:11;14.20;99.90
30328;DHT22;17133;52.418;13.398;2023-09-30T04:04:37;14.20;99.90
30328;DHT22;17133;52.418;13.398;2023-09-30T04:07:03;14.10;99.90
30328;DHT22;17133;52.418;13.398;2023-09-30T04:09:32;14.10;99.90
30328;DHT22;17133;52.418;13.398;2023-09-30T04:11:58;14.40;99.90
30328;DHT22;17133;52.418;13.398;2023-09-30T04:14:23;14.00;99.90
30328;DHT22;17133;52.418;13.398;2023-09-30T04:16:50;14.00;99.90
30328;DHT22;17133;52.418;13.398;2023-09-30T04:19:16;14.00;99.90
30328;DHT22;17133;52.418;13.398;2023-09-30T04:21:42;14.10;99.90
30328;DHT22;17133;52.418;13.398;2023-09-30T04:33:54;14.00;99.90
30328;DHT22;17133;52.418;13.398;2023-09-30T04:36:20;14.00;99.90
30328;DHT22;17133;52.418;13.398;2023-09-30T04:38:46;13.90;99.90
30328;DHT22;17133;52.418;13.398;2023-09-30T04:41:13;13.90;99.90
30328;DHT22;17133;52.418;13.398;2023-09-30T04:43:38;13.90;99.90
30328;DHT22;17133;52.418;13.398;2023-09-30T04:46:05;13.90;99.90
30328;DHT22;17133;52.418;13.398;2023-09-30T04:48:32;13.90;99.90
30328;DHT22;17133;52.418;13.398;2023-09-30T04:50:58;13.90;99.90
30328;DHT22;17133;52.418;13.398;2023-09-30T04:53:23;13.80;99.90
30328;DHT22;17133;52.418;13.398;2023-09-30T04:55:49;13.80;99.90
30328;DHT22;17133;52.418;13.398;2023-09-30T04:58:16;13.70;99.90
30328;DHT22;17133;52.418;13.398;2023-09-30T05:00:41;13.80;99.90
30328;DHT22;17133;52.418;13.398;2023-09-30T05:10:27;13.60;99.90
30328;DHT22;17133;52.418;13.398;2023-09-30T05:12:52;13.50;99.90
30328;DHT22;17133;52.418;13.398;2023-09-30T05:15:21;13.50;99.90
30328;DHT22;17133;52.418;13.398;2023-09-30T05:17:48;13.50;99.90
30328;DHT22;17133;52.418;13.398;2023-09-30T05:20:15;13.50;99.90
30328;DHT22;17133;52.418;13.398;2023-09-30T05:22:43;13.40;99.90
30328;DHT22;17133;52.418;13.398;2023-09-30T05:25:15;13.40;99.90
30328;DHT22;17133;52.418;13.398;2023-09-30T05:27:44;13.40;99.90
30328;DHT22;17133;52.418;13.398;2023-09-30T05:30:10;13.30;99.90
30328;DHT22;17133;52.418;13.398;2023-09-30T05:32:37;13.30;99.90
30328;DHT22;17133;52.418;13.398;2023-09-30T05:35:05;13.30;99.90
30328;DHT22;17133;52.418;13.398;2023-09-30T05:37:31;13.30;99.90
30328;DHT22;17133;52.418;13.398;2023-09-30T05:39:56;13.30;99.90
30328;DHT22;17133;52.418;13.398;2023-09-30T05:42:22;13.30;99.90
30328;DHT22;17133;52.418;13.398;2023-09-30T05:44:48;13.40;99.90
30328;DHT22;17133;52.418;13.398;2023-09-30T05:47:14;13.40;99.90
30328;DHT22;17133;52.418;13.398;2023-09-30T05:49:41;13.40;99.90
30328;DHT22;17133;52.418;13.398;2023-09-30T05:52:07;13.40;99.90
30328;DHT22;17133;52.418;13.398;2023-09-30T05:54:32;13.50;99.90
30328;DHT22;17133;52.418;13.398;2023-09-30T05:56:58;13.50;99.90
30328;DHT22;17133;52.418;13.398;2023-09-30T05:59:26;13.50;99.90
30328;DHT22;17133;52.418;13.398;2023-09-30T06:01:53;13.50;99.90
30328;DHT22;17133;52.418;13.398;2023-09-30T06:04:19;13.60;99.90
30328;DHT22;17133;52.418;13.398;2023-09-30T06:06:45;13.70;99.90
30328;DHT22;17133;52.418;13.398;2023-09-30T06:09:10;13.80;99.90
30328;DHT22;17133;52.418;13.398;2023-09-30T06:11:36;13.80;99.90
30328;DHT22;17133;52.418;13.398;2023-09-30T06:14:02;13.90;99.90
30328;DHT22;17133;52.418;13.398;2023-09-30T06:16:28;14.00;99.90
30328;DHT22;17133;52.418;13.398;2023-09-30T06:18:57;14.10;99.90
30328;DHT22;17133;52.418;13.398;2023-09-30T06:21:24;14.10;99.90
30328;DHT22;17133;52.418;13.398;2023-09-30T06:23:50;13.90;99.90
30328;DHT22;17133;52.418;13.398;2023-09-30T06:26:19;14.20;99.90
30328;DHT22;17133;52.418;13.398;2023-09-30T06:28:46;14.20;99.90
30328;DHT22;17133;52.418;13.398;2023-09-30T06:31:13;14.20;99.90
30328;DHT22;17133;52.418;13.398;2023-09-30T06:33:39;14.30;99.90
30328;DHT22;17133;52.418;13.398;2023-09-30T06:36:12;14.30;99.90
30328;DHT22;17133;52.418;13.398;2023-09-30T06:38:42;14.40;99.90
30328;DHT22;17133;52.418;13.398;2023-09-30T06:41:09;14.40;99.90
30328;DHT22;17133;52.418;13.398;2023-09-30T06:43:35;14.40;99.90
30328;DHT22;17133;52.418;13.398;2023-09-30T06:46:07;14.40;99.90
30328;DHT22;17133;52.418;13.398;2023-09-30T06:48:35;14.50;99.90
30328;DHT22;17133;52.418;13.398;2023-09-30T06:51:01;14.50;99.90
30328;DHT22;17133;52.418;13.398;2023-09-30T06:53:27;14.50;99.90
30328;DHT22;17133;52.418;13.398;2023-09-30T06:55:53;14.60;99.90
30328;DHT22;17133;52.418;13.398;2023-09-30T06:58:18;14.60;99.90
30328;DHT22;17133;52.418;13.398;2023-09-30T07:00:51;14.60;99.90
30328;DHT22;17133;52.418;13.398;2023-09-30T07:03:17;14.60;99.90
30328;DHT22;17133;52.418;13.398;2023-09-30T07:05:44;14.70;99.90
30328;DHT22;17133;52.418;13.398;2023-09-30T07:08:10;14.80;99.90
30328;DHT22;17133;52.418;13.398;2023-09-30T07:10:36;15.80;99.90
30328;DHT22;17133;52.418;13.398;2023-09-30T07:13:03;15.10;99.90
30328;DHT22;17133;52.418;13.398;2023-09-30T07:15:29;15.20;99.90
30328;DHT22;17133;52.418;13.398;2023-09-30T07:17:55;15.30;99.90
30328;DHT22;17133;52.418;13.398;2023-09-30T07:20:21;15.30;99.90
30328;DHT22;17133;52.418;13.398;2023-09-30T07:22:48;15.30;99.90
30328;DHT22;17133;52.418;13.398;2023-09-30T07:25:14;15.40;99.90
30328;DHT22;17133;52.418;13.398;2023-09-30T07:27:43;15.50;99.90
30328;DHT22;17133;52.418;13.398;2023-09-30T07:30:09;15.60;99.90
30328;DHT22;17133;52.418;13.398;2023-09-30T07:32:37;15.60;99.90
30328;DHT22;17133;52.418;13.398;2023-09-30T07:35:03;15.60;99.90
30328;DHT22;17133;52.418;13.398;2023-09-30T07:37:29;15.70;99.90
30328;DHT22;17133;52.418;13.398;2023-09-30T07:39:55;15.80;99.90
30328;DHT22;17133;52.418;13.398;2023-09-30T07:42:20;15.80;99.90
30328;DHT22;17133;52.418;13.398;2023-09-30T07:44:48;15.80;99.90
30328;DHT22;17133;52.418;13.398;2023-09-30T07:47:14;15.90;99.90
30328;DHT22;17133;52.418;13.398;2023-09-30T07:49:40;15.90;99.90
30328;DHT22;17133;52.418;13.398;2023-09-30T07:52:06;16.00;99.90
30328;DHT22;17133;52.418;13.398;2023-09-30T07:54:31;16.00;99.90
30328;DHT22;17133;52.418;13.398;2023-09-30T07:56:57;16.10;99.90
30328;DHT22;17133;52.418;13.398;2023-09-30T07:59:24;16.10;99.90
30328;DHT22;17133;52.418;13.398;2023-09-30T08:01:51;16.00;99.90
30328;DHT22;17133;52.418;13.398;2023-09-30T08:04:18;16.00;99.90
30328;DHT22;17133;52.418;13.398;2023-09-30T08:06:44;16.00;99.90
30328;DHT22;17133;52.418;13.398;2023-09-30T08:09:12;15.90;99.90
30328;DHT22;17133;52.418;13.398;2023-09-30T08:11:38;15.90;99.90
30328;DHT22;17133;52.418;13.398;2023-09-30T08:14:05;15.80;99.90
30328;DHT22;17133;52.418;13.398;2023-09-30T08:16:33;15.90;99.90
30328;DHT22;17133;52.418;13.398;2023-09-30T08:18:58;15.80;99.90
30328;DHT22;17133;52.418;13.398;2023-09-30T08:21:24;15.80;99.90
30328;DHT22;17133;52.418;13.398;2023-09-30T08:23:50;15.90;99.90
30328;DHT22;17133;52.418;13.398;2023-09-30T08:26:16;15.90;99.90
30328;DHT22;17133;52.418;13.398;2023-09-30T08:28:41;16.00;99.90
30328;DHT22;17133;52.418;13.398;2023-09-30T08:31:07;16.10;99.90
30328;DHT22;17133;52.418;13.398;2023-09-30T08:33:34;16.30;99.90
30328;DHT22;17133;52.418;13.398;2023-09-30T08:36:05;16.40;99.90
30328;DHT22;17133;52.418;13.398;2023-09-30T08:38:34;16.50;99.90
30328;DHT22;17133;52.418;13.398;2023-09-30T08:41:00;16.60;99.90
30328;DHT22;17133;52.418;13.398;2023-09-30T08:43:28;16.70;99.90
30328;DHT22;17133;52.418;13.398;2023-09-30T08:45:56;16.70;99.90
30328;DHT22;17133;52.418;13.398;2023-09-30T08:48:23;16.70;99.90
30328;DHT22;17133;52.418;13.398;2023-09-30T08:50:53;16.70;99.90
30328;DHT22;17133;52.418;13.398;2023-09-30T08:53:20;17.00;99.90
30328;DHT22;17133;52.418;13.398;2023-09-30T08:55:46;16.80;99.90
30328;DHT22;17133;52.418;13.398;2023-09-30T08:58:12;17.00;99.90
30328;DHT22;17133;52.418;13.398;2023-09-30T09:00:39;17.00;99.90
30328;DHT22;17133;52.418;13.398;2023-09-30T09:03:07;17.00;99.90
30328;DHT22;17133;52.418;13.398;2023-09-30T09:05:33;17.00;99.90
30328;DHT22;17133;52.418;13.398;2023-09-30T09:07:59;17.00;99.90
30328;DHT22;17133;52.418;13.398;2023-09-30T09:10:24;17.10;99.90
30328;DHT22;17133;52.418;13.398;2023-09-30T09:12:57;16.10;99.90
30328;DHT22;17133;52.418;13.398;2023-09-30T09:15:25;17.10;99.90
30328;DHT22;17133;52.418;13.398;2023-09-30T09:17:51;17.10;99.90
30328;DHT22;17133;52.418;13.398;2023-09-30T09:20:19;17.10;99.90
30328;DHT22;17133;52.418;13.398;2023-09-30T09:22:52;17.20;99.90
30328;DHT22;17133;52.418;13.398;2023-09-30T09:25:21;17.30;99.90
30328;DHT22;17133;52.418;13.398;2023-09-30T09:27:51;18.00;99.90
30328;DHT22;17133;52.418;13.398;2023-09-30T09:30:23;17.40;99.90
30328;DHT22;17133;52.418;13.398;2023-09-30T09:33:01;17.50;99.90
30328;DHT22;17133;52.418;13.398;2023-09-30T09:35:28;17.60;99.90
30328;DHT22;17133;52.418;13.398;2023-09-30T09:38:04;16.90;99.90
30328;DHT22;17133;52.418;13.398;2023-09-30T09:40:34;17.60;99.90
30328;DHT22;17133;52.418;13.398;2023-09-30T09:43:01;17.50;99.90
30328;DHT22;17133;52.418;13.398;2023-09-30T09:45:30;17.50;99.90
30328;DHT22;17133;52.418;13.398;2023-09-30T09:47:58;17.60;99.90
30328;DHT22;17133;52.418;13.398;2023-09-30T09:50:24;17.70;99.90
30328;DHT22;17133;52.418;13.398;2023-09-30T09:52:52;17.80;99.90
30328;DHT22;17133;52.418;13.398;2023-09-30T09:55:24;17.80;99.90
30328;DHT22;17133;52.418;13.398;2023-09-30T09:57:50;17.90;99.90
30328;DHT22;17133;52.418;13.398;2023-09-30T10:00:18;17.90;99.90
30328;DHT22;17133;52.418;13.398;2023-09-30T10:02:47;17.90;99.90
30328;DHT22;17133;52.418;13.398;2023-09-30T10:05:14;18.00;99.90
30328;DHT22;17133;52.418;13.398;2023-09-30T10:10:15;18.10;99.90
30328;DHT22;17133;52.418;13.398;2023-09-30T10:12:42;19.60;99.90
30328;DHT22;17133;52.418;13.398;2023-09-30T10:15:34;18.20;99.90
30328;DHT22;17133;52.418;13.398;2023-09-30T10:20:36;18.40;99.90
30328;DHT22;17133;52.418;13.398;2023-09-30T10:25:47;18.70;99.90
30328;DHT22;17133;52.418;13.398;2023-09-30T10:31:16;19.60;99.90
30328;DHT22;17133;52.418;13.398;2023-09-30T10:39:02;19.40;99.90
30328;DHT22;17133;52.418;13.398;2023-09-30T10:47:34;19.20;99.90
30328;DHT22;17133;52.418;13.398;2023-09-30T10:49:43;19.10;99.90
30328;DHT22;17133;52.418;13.398;2023-09-30T10:52:09;19.10;99.90
30328;DHT22;17133;52.418;13.398;2023-09-30T10:54:35;19.10;99.90
30328;DHT22;17133;52.418;13.398;2023-09-30T10:57:02;19.10;99.90
30328;DHT22;17133;52.418;13.398;2023-09-30T11:02:00;18.90;99.90
30328;DHT22;17133;52.418;13.398;2023-09-30T11:04:26;18.70;99.90
30328;DHT22;17133;52.418;13.398;2023-09-30T11:06:55;19.00;99.90
30328;DHT22;17133;52.418;13.398;2023-09-30T11:09:22;19.00;99.90
30328;DHT22;17133;52.418;13.398;2023-09-30T11:11:50;19.00;99.90
30328;DHT22;17133;52.418;13.398;2023-09-30T11:16:52;19.10;99.90
30328;DHT22;17133;52.418;13.398;2023-09-30T11:19:18;19.10;99.90
30328;DHT22;17133;52.418;13.398;2023-09-30T11:21:52;19.00;99.90
30328;DHT22;17133;52.418;13.398;2023-09-30T11:24:18;19.40;99.90
30328;DHT22;17133;52.418;13.398;2023-09-30T11:26:47;19.00;99.90
30328;DHT22;17133;52.418;13.398;2023-09-30T11:29:14;18.90;99.90
30328;DHT22;17133;52.418;13.398;2023-09-30T11:31:44;19.30;99.90
30328;DHT22;17133;52.418;13.398;2023-09-30T11:34:11;19.50;99.90
30328;DHT22;17133;52.418;13.398;2023-09-30T11:36:46;19.60;99.90
30328;DHT22;17133;52.418;13.398;2023-09-30T11:39:22;19.70;99.90
30328;DHT22;17133;52.418;13.398;2023-09-30T11:41:48;20.00;99.90
30328;DHT22;17133;52.418;13.398;2023-09-30T11:44:13;20.10;99.90
30328;DHT22;17133;52.418;13.398;2023-09-30T11:49:31;20.40;99.90
30328;DHT22;17133;52.418;13.398;2023-09-30T11:51:59;20.50;99.90
30328;DHT22;17133;52.418;13.398;2023-09-30T11:54:41;20.50;99.90
30328;DHT22;17133;52.418;13.398;2023-09-30T11:57:13;20.70;99.90
30328;DHT22;17133;52.418;13.398;2023-09-30T11:59:41;20.70;99.90
30328;DHT22;17133;52.418;13.398;2023-09-30T12:02:08;20.60;99.90
30328;DHT22;17133;52.418;13.398;2023-09-30T12:04:35;20.40;99.90
30328;DHT22;17133;52.418;13.398;2023-09-30T12:07:01;20.40;99.90
30328;DHT22;17133;52.418;13.398;2023-09-30T12:09:27;20.50;99.90
30328;DHT22;17133;52.418;13.398;2023-09-30T12:11:54;20.50;99.90
30328;DHT22;17133;52.418;13.398;2023-09-30T12:14:21;20.50;99.90
30328;DHT22;17133;52.418;13.398;2023-09-30T12:16:47;20.50;99.90
30328;DHT22;17133;52.418;13.398;2023-09-30T12:19:17;20.50;99.90
30328;DHT22;17133;52.418;13.398;2023-09-30T12:21:44;20.50;99.90
30328;DHT22;17133;52.418;13.398;2023-09-30T12:24:16;20.50;99.90
30328;DHT22;17133;52.418;13.398;2023-09-30T12:26:44;20.50;99.90
30328;DHT22;17133;52.418;13.398;2023-09-30T12:29:17;20.60;99.90
30328;DHT22;17133;52.418;13.398;2023-09-30T12:31:44;21.40;99.90
30328;DHT22;17133;52.418;13.398;2023-09-30T12:34:14;20.50;99.90
30328;DHT22;17133;52.418;13.398;2023-09-30T12:36:40;20.50;99.90
30328;DHT22;17133;52.418;13.398;2023-09-30T12:39:07;20.40;99.90
30328;DHT22;17133;52.418;13.398;2023-09-30T12:41:44;20.20;99.90
30328;DHT22;17133;52.418;13.398;2023-09-30T12:44:10;20.20;99.90
30328;DHT22;17133;52.418;13.398;2023-09-30T12:46:36;19.90;99.90
30328;DHT22;17133;52.418;13.398;2023-09-30T12:49:06;19.90;99.90
30328;DHT22;17133;52.418;13.398;2023-09-30T12:51:33;19.90;99.90
30328;DHT22;17133;52.418;13.398;2023-09-30T12:53:59;19.80;99.90
30328;DHT22;17133;52.418;13.398;2023-09-30T12:56:25;19.70;99.90
30328;DHT22;17133;52.418;13.398;2023-09-30T12:58:51;19.70;99.90
30328;DHT22;17133;52.418;13.398;2023-09-30T13:01:17;19.70;99.90
30328;DHT22;17133;52.418;13.398;2023-09-30T13:03:47;19.90;99.90
30328;DHT22;17133;52.418;13.398;2023-09-30T13:06:13;19.80;99.90
30328;DHT22;17133;52.418;13.398;2023-09-30T13:08:39;19.80;99.90
30328;DHT22;17133;52.418;13.398;2023-09-30T13:11:04;19.90;99.90
30328;DHT22;17133;52.418;13.398;2023-09-30T13:13:32;19.90;99.90
30328;DHT22;17133;52.418;13.398;2023-09-30T13:16:02;20.00;99.90
30328;DHT22;17133;52.418;13.398;2023-09-30T13:18:31;20.00;99.90
30328;DHT22;17133;52.418;13.398;2023-09-30T13:20:58;20.10;99.90
30328;DHT22;17133;52.418;13.398;2023-09-30T13:23:23;20.10;99.90
30328;DHT22;17133;52.418;13.398;2023-09-30T13:25:49;20.10;99.90
30328;DHT22;17133;52.418;13.398;2023-09-30T13:28:15;20.20;99.90
30328;DHT22;17133;52.418;13.398;2023-09-30T13:30:41;20.30;99.90
30328;DHT22;17133;52.418;13.398;2023-09-30T13:33:07;20.20;99.90
30328;DHT22;17133;52.418;13.398;2023-09-30T13:35:33;20.30;99.90
30328;DHT22;17133;52.418;13.398;2023-09-30T13:38:01;20.30;99.90
30328;DHT22;17133;52.418;13.398;2023-09-30T13:40:29;20.00;99.90
30328;DHT22;17133;52.418;13.398;2023-09-30T13:42:54;20.20;99.90
30328;DHT22;17133;52.418;13.398;2023-09-30T13:45:20;20.20;99.90
30328;DHT22;17133;52.418;13.398;2023-09-30T13:47:46;20.20;99.90
30328;DHT22;17133;52.418;13.398;2023-09-30T13:50:11;20.30;99.90
30328;DHT22;17133;52.418;13.398;2023-09-30T13:55:05;20.20;99.90
30328;DHT22;17133;52.418;13.398;2023-09-30T13:57:31;20.10;99.90
30328;DHT22;17133;52.418;13.398;2023-09-30T13:59:57;20.10;99.90
30328;DHT22;17133;52.418;13.398;2023-09-30T14:02:22;20.20;99.90
30328;DHT22;17133;52.418;13.398;2023-09-30T14:04:48;19.30;99.90
30328;DHT22;17133;52.418;13.398;2023-09-30T14:07:14;20.20;99.90
30328;DHT22;17133;52.418;13.398;2023-09-30T14:09:40;20.20;99.90
30328;DHT22;17133;52.418;13.398;2023-09-30T14:12:05;20.30;99.90
30328;DHT22;17133;52.418;13.398;2023-09-30T14:14:34;20.10;99.90
30328;DHT22;17133;52.418;13.398;2023-09-30T14:17:00;20.20;99.90
30328;DHT22;17133;52.418;13.398;2023-09-30T14:19:32;20.10;99.90
30328;DHT22;17133;52.418;13.398;2023-09-30T14:21:59;20.00;99.90
30328;DHT22;17133;52.418;13.398;2023-09-30T14:24:24;19.90;99.90
30328;DHT22;17133;52.418;13.398;2023-09-30T14:26:50;19.70;99.90
30328;DHT22;17133;52.418;13.398;2023-09-30T14:29:15;19.70;99.90
30328;DHT22;17133;52.418;13.398;2023-09-30T14:31:41;19.70;99.90
30328;DHT22;17133;52.418;13.398;2023-09-30T14:39:00;19.60;99.90
30328;DHT22;17133;52.418;13.398;2023-09-30T14:41:25;19.40;99.90
30328;DHT22;17133;52.418;13.398;2023-09-30T14:43:51;19.40;99.90
30328;DHT22;17133;52.418;13.398;2023-09-30T14:46:17;19.30;99.90
30328;DHT22;17133;52.418;13.398;2023-09-30T14:48:42;19.30;99.90
30328;DHT22;17133;52.418;13.398;2023-09-30T14:51:09;19.30;99.90
30328;DHT22;17133;52.418;13.398;2023-09-30T14:53:35;19.30;99.90
30328;DHT22;17133;52.418;13.398;2023-09-30T14:56:00;19.30;99.90
30328;DHT22;17133;52.418;13.398;2023-09-30T14:58:26;18.40;99.90
30328;DHT22;17133;52.418;13.398;2023-09-30T15:00:52;19.30;99.90
30328;DHT22;17133;52.418;13.398;2023-09-30T15:03:19;19.20;99.90
30328;DHT22;17133;52.418;13.398;2023-09-30T15:05:47;19.20;99.90
30328;DHT22;17133;52.418;13.398;2023-09-30T15:08:13;19.20;99.90
30328;DHT22;17133;52.418;13.398;2023-09-30T15:10:38;19.30;99.90
30328;DHT22;17133;52.418;13.398;2023-09-30T15:13:04;19.30;99.90
30328;DHT22;17133;52.418;13.398;2023-09-30T15:15:30;19.30;99.90
30328;DHT22;17133;52.418;13.398;2023-09-30T15:17:56;19.20;99.90
30328;DHT22;17133;52.418;13.398;2023-09-30T15:20:22;19.20;99.90
30328;DHT22;17133;52.418;13.398;2023-09-30T15:22:47;19.10;99.90
30328;DHT22;17133;52.418;13.398;2023-09-30T15:25:13;19.10;99.90
30328;DHT22;17133;52.418;13.398;2023-09-30T15:27:39;19.00;99.90
30328;DHT22;17133;52.418;13.398;2023-09-30T15:30:05;19.00;99.90
30328;DHT22;17133;52.418;13.398;2023-09-30T15:32:33;18.90;99.90
30328;DHT22;17133;52.418;13.398;2023-09-30T15:34:59;18.90;99.90
30328;DHT22;17133;52.418;13.398;2023-09-30T15:37:25;18.80;99.90
30328;DHT22;17133;52.418;13.398;2023-09-30T15:39:52;18.80;99.90
30328;DHT22;17133;52.418;13.398;2023-09-30T15:42:17;18.70;99.90
30328;DHT22;17133;52.418;13.398;2023-09-30T15:44:43;18.70;99.90
30328;DHT22;17133;52.418;13.398;2023-09-30T15:47:09;18.60;99.90
30328;DHT22;17133;52.418;13.398;2023-09-30T15:49:35;18.60;99.90
30328;DHT22;17133;52.418;13.398;2023-09-30T15:52:02;18.50;99.90
30328;DHT22;17133;52.418;13.398;2023-09-30T15:54:27;18.50;99.90
30328;DHT22;17133;52.418;13.398;2023-09-30T15:56:53;18.40;99.90
30328;DHT22;17133;52.418;13.398;2023-09-30T15:59:18;18.40;99.90
30328;DHT22;17133;52.418;13.398;2023-09-30T16:01:44;18.50;99.90
30328;DHT22;17133;52.418;13.398;2023-09-30T16:04:10;18.50;99.90
30328;DHT22;17133;52.418;13.398;2023-09-30T16:06:39;18.40;99.90
30328;DHT22;17133;52.418;13.398;2023-09-30T16:09:05;18.30;99.90
30328;DHT22;17133;52.418;13.398;2023-09-30T16:11:31;18.30;99.90
30328;DHT22;17133;52.418;13.398;2023-09-30T16:13:57;18.20;99.90
30328;DHT22;17133;52.418;13.398;2023-09-30T16:16:22;18.10;99.90
30328;DHT22;17133;52.418;13.398;2023-09-30T16:18:48;18.20;99.90